createdAt,value
2023-05-18T00:00:37.560Z,150540.38
2023-05-18T00:03:03.577Z,150561.88
2023-05-18T00:05:33.372Z,150522.69
2023-05-18T00:08:00.579Z,150512.63
2023-05-18T00:10:26.624Z,150525.25
2023-05-18T00:12:52.625Z,150547.97
2023-05-18T00:15:18.742Z,150497.47
2023-05-18T00:17:45.001Z,150474.75
2023-05-18T00:20:11.509Z,150497.47
2023-05-18T00:22:41.895Z,150530.31
2023-05-18T00:25:08.203Z,150508.84
2023-05-18T00:27:34.128Z,150467.16
2023-05-18T00:30:00.209Z,150479.78
2023-05-18T00:32:26.168Z,150440.69
2023-05-18T00:34:52.105Z,150464.63
2023-05-18T00:37:17.982Z,150399.03
2023-05-18T00:39:43.919Z,150406.59
2023-05-18T00:42:09.850Z,150358.63
2023-05-18T00:44:35.708Z,150339.69
2023-05-18T00:47:01.560Z,150382.63
2023-05-18T00:49:27.604Z,150393.97
2023-05-18T00:51:54.348Z,150402.81
2023-05-18T00:54:20.295Z,150287.97
2023-05-18T00:56:47.664Z,150329.63
2023-05-18T00:59:14.769Z,150340.97
2023-05-18T01:01:45.455Z,150303.13
2023-05-18T01:04:13.558Z,150274.09
2023-05-18T01:06:40.650Z,150306.88
2023-05-18T01:09:09.771Z,150308.16
2023-05-18T01:12:16.224Z,150293.06
2023-05-18T01:14:51.910Z,150250.09
2023-05-18T01:18:04.177Z,150185.78
2023-05-18T01:20:48.863Z,150194.59
2023-05-18T01:23:33.271Z,150171.91
2023-05-18T01:25:59.100Z,150159.28
2023-05-18T01:28:29.555Z,150197.09
2023-05-18T01:30:56.938Z,150226.13
2023-05-18T01:33:24.437Z,150232.41
2023-05-18T01:35:51.275Z,150205.97
2023-05-18T01:38:19.596Z,150250.09
2023-05-18T01:40:59.267Z,150224.88
2023-05-18T01:43:31.428Z,150222.34
2023-05-18T01:46:04.334Z,150188.31
2023-05-18T01:48:33.759Z,150185.78
2023-05-18T01:51:00.072Z,150190.81
2023-05-18T01:53:31.705Z,150170.66
2023-05-18T01:55:59.008Z,150127.75
2023-05-18T01:58:25.783Z,150098.78
2023-05-18T02:00:52.387Z,150173.16
2023-05-18T02:03:18.345Z,150110.09
2023-05-18T02:05:44.341Z,150127.75
2023-05-18T02:08:10.330Z,150122.72
2023-05-18T02:10:36.195Z,150105.06
2023-05-18T02:13:02.062Z,150136.59
2023-05-18T02:15:28.228Z,150111.41
2023-05-18T02:17:57.478Z,150030.69
2023-05-18T02:20:23.587Z,150087.41
2023-05-18T02:22:49.863Z,150058.44
2023-05-18T02:25:16.408Z,150073.53
2023-05-18T02:27:42.483Z,150071.00
2023-05-18T02:30:08.824Z,150055.88
2023-05-18T02:32:37.607Z,150081.13
2023-05-18T02:35:05.946Z,150077.34
2023-05-18T02:37:33.653Z,150120.19
2023-05-18T02:40:00.797Z,150086.16
2023-05-18T02:42:26.675Z,150092.44
2023-05-18T02:44:52.533Z,150120.19
2023-05-18T02:47:18.402Z,150115.16
2023-05-18T02:49:44.259Z,150105.06
2023-05-18T02:52:10.230Z,150101.28
2023-05-18T02:54:36.302Z,150069.75
2023-05-18T02:57:02.169Z,150039.50
2023-05-18T02:59:28.025Z,150019.31
2023-05-18T03:01:53.870Z,150047.06
2023-05-18T03:04:21.228Z,150060.94
2023-05-18T03:06:52.035Z,150052.09
2023-05-18T03:09:19.290Z,150000.41
2023-05-18T03:11:45.216Z,150031.94
2023-05-18T03:14:11.085Z,150031.94
2023-05-18T03:16:38.190Z,150021.88
2023-05-18T03:19:04.117Z,150038.22
2023-05-18T03:21:32.917Z,150048.34
2023-05-18T03:23:59.722Z,149990.38
2023-05-18T03:26:26.216Z,150001.69
2023-05-18T03:28:52.046Z,150047.06
2023-05-18T03:31:18.002Z,150033.19
2023-05-18T03:33:43.934Z,150010.53
2023-05-18T03:36:10.046Z,150008.00
2023-05-18T03:38:36.002Z,150010.53
2023-05-18T03:41:01.921Z,149996.66
2023-05-18T03:43:28.930Z,149973.97
2023-05-18T03:45:55.299Z,149928.59
2023-05-18T03:48:24.050Z,149924.81
2023-05-18T03:50:50.236Z,149984.03
2023-05-18T03:53:24.804Z,149955.06
2023-05-18T03:55:50.989Z,149985.28
2023-05-18T03:58:19.368Z,149965.13
2023-05-18T04:00:46.689Z,149939.94
2023-05-18T04:03:14.018Z,149953.81
2023-05-18T04:05:43.146Z,149963.88
2023-05-18T04:08:10.232Z,150004.25
2023-05-18T04:10:36.193Z,150009.28
2023-05-18T04:13:02.483Z,150014.28
2023-05-18T04:15:28.473Z,149992.88
2023-05-18T04:17:54.403Z,149973.97
2023-05-18T04:20:20.561Z,150000.41
2023-05-18T04:22:47.449Z,150019.31
2023-05-18T04:25:14.353Z,150018.06
2023-05-18T04:27:41.397Z,150025.66
2023-05-18T04:30:10.034Z,150024.41
2023-05-18T04:32:36.454Z,150082.38
2023-05-18T04:35:06.653Z,150078.59
2023-05-18T04:37:33.240Z,150054.63
2023-05-18T04:40:01.467Z,150089.91
2023-05-18T04:42:28.220Z,150091.19
2023-05-18T04:44:54.184Z,150078.59
2023-05-18T04:47:23.275Z,150126.47
2023-05-18T04:49:51.674Z,150098.78
2023-05-18T04:52:21.063Z,150130.31
2023-05-18T04:54:47.009Z,150111.41
2023-05-18T04:57:16.274Z,150165.63
2023-05-18T04:59:46.615Z,150158.03
2023-05-18T05:02:13.367Z,150165.63
2023-05-18T05:04:39.315Z,150185.78
2023-05-18T05:07:05.242Z,150193.34
2023-05-18T05:09:31.192Z,150213.50
2023-05-18T05:11:57.061Z,150216.03
2023-05-18T05:14:22.952Z,150202.19
2023-05-18T05:16:48.788Z,150223.63
2023-05-18T05:19:14.797Z,150246.31
2023-05-18T05:21:40.940Z,150168.13
2023-05-18T05:24:07.760Z,150183.28
2023-05-18T05:26:34.542Z,150216.03
2023-05-18T05:29:00.389Z,150223.63
2023-05-18T05:31:26.521Z,150277.84
2023-05-18T05:33:52.938Z,150311.97
2023-05-18T05:36:18.857Z,150310.72
2023-05-18T05:38:45.032Z,150305.63
2023-05-18T05:41:11.016Z,150320.78
2023-05-18T05:43:36.860Z,150340.97
2023-05-18T05:46:02.788Z,150290.47
2023-05-18T05:48:28.626Z,150323.28
2023-05-18T05:50:54.539Z,150353.59
2023-05-18T05:53:22.681Z,150385.16
2023-05-18T05:55:48.655Z,150395.22
2023-05-18T05:58:14.562Z,150415.41
2023-05-18T06:00:41.090Z,150429.31
2023-05-18T06:03:07.726Z,150428.03
2023-05-18T06:05:33.754Z,150410.38
2023-05-18T06:08:00.058Z,150426.78
2023-05-18T06:10:26.153Z,150449.50
2023-05-18T06:12:52.037Z,150411.63
2023-05-18T06:15:18.520Z,150458.34
2023-05-18T06:17:44.663Z,150484.84
2023-05-18T06:20:11.545Z,150530.31
2023-05-18T06:22:37.448Z,150521.44
2023-05-18T06:25:03.715Z,150551.75
2023-05-18T06:27:29.541Z,150569.44
2023-05-18T06:29:55.503Z,150587.13
2023-05-18T06:32:21.690Z,150564.41
2023-05-18T06:34:49.896Z,150583.34
2023-05-18T06:37:17.183Z,150566.91
2023-05-18T06:39:43.080Z,150611.09
2023-05-18T06:42:08.963Z,150648.97
2023-05-18T06:44:35.276Z,150643.94
2023-05-18T06:47:01.445Z,150686.91
2023-05-18T06:49:27.519Z,150700.75
2023-05-18T06:51:53.381Z,150712.16
2023-05-18T06:54:19.334Z,150751.28
2023-05-18T06:56:46.165Z,150750.03
2023-05-18T06:59:12.112Z,150747.50
2023-05-18T07:01:40.037Z,150770.25
2023-05-18T07:04:06.121Z,150752.56
2023-05-18T07:06:32.072Z,150771.50
2023-05-18T07:08:57.966Z,150794.28
2023-05-18T07:11:23.918Z,150813.22
2023-05-18T07:13:49.791Z,150823.31
2023-05-18T07:16:15.820Z,150839.75
2023-05-18T07:18:41.807Z,150844.78
2023-05-18T07:21:07.860Z,150868.84
2023-05-18T07:23:33.814Z,150921.97
2023-05-18T07:25:59.709Z,150923.22
2023-05-18T07:28:25.732Z,150933.31
2023-05-18T07:30:51.650Z,150938.41
2023-05-18T07:33:17.668Z,150916.88
2023-05-18T07:35:43.624Z,150959.88
2023-05-18T07:38:09.494Z,151004.09
2023-05-18T07:40:35.455Z,151035.72
2023-05-18T07:43:01.370Z,151040.78
2023-05-18T07:45:27.376Z,151058.47
2023-05-18T07:47:53.713Z,151086.31
2023-05-18T07:50:19.587Z,151095.16
2023-05-18T07:52:45.965Z,151100.25
2023-05-18T07:55:12.167Z,151157.16
2023-05-18T07:57:39.237Z,151131.81
2023-05-18T08:00:06.233Z,151144.47
2023-05-18T08:02:34.023Z,151138.19
2023-05-18T08:05:00.316Z,151143.22
2023-05-18T08:07:29.257Z,151144.47
2023-05-18T08:09:56.383Z,151181.16
2023-05-18T08:12:22.660Z,151200.13
2023-05-18T08:14:48.523Z,151177.38
2023-05-18T08:17:14.647Z,151197.63
2023-05-18T08:19:41.952Z,151243.19
2023-05-18T08:22:08.076Z,151254.53
2023-05-18T08:24:34.042Z,151301.38
2023-05-18T08:27:00.061Z,151296.28
2023-05-18T08:29:26.004Z,151316.56
2023-05-18T08:31:51.933Z,151360.88
2023-05-18T08:34:17.922Z,151386.19
2023-05-18T08:36:45.043Z,151417.84
2023-05-18T08:39:11.857Z,151483.69
2023-05-18T08:41:54.825Z,151519.13
2023-05-18T08:44:25.279Z,151515.34
2023-05-18T08:46:51.582Z,151553.34
2023-05-18T08:49:19.719Z,151530.50
2023-05-18T08:51:53.210Z,151549.53
2023-05-18T08:54:20.591Z,151482.41
2023-05-18T08:56:47.180Z,151474.81
2023-05-18T08:59:17.912Z,151479.91
2023-05-18T09:01:44.534Z,151553.34
2023-05-18T09:04:12.082Z,151636.91
2023-05-18T09:06:39.763Z,151647.06
2023-05-18T09:09:05.917Z,151666.03
2023-05-18T09:11:34.033Z,151676.19
2023-05-18T09:14:00.467Z,151673.63
2023-05-18T09:16:26.601Z,151612.84
2023-05-18T09:18:53.244Z,151597.63
2023-05-18T09:21:19.144Z,151636.91
2023-05-18T09:23:47.421Z,151623.00
2023-05-18T09:26:13.519Z,151690.09
2023-05-18T09:28:41.230Z,151742.06
2023-05-18T09:31:09.438Z,151757.31
2023-05-18T09:33:37.484Z,151737.00
2023-05-18T09:36:05.939Z,151739.53
2023-05-18T09:38:37.488Z,151749.72
2023-05-18T09:41:03.637Z,151813.06
2023-05-18T09:43:29.606Z,151889.09
2023-05-18T09:45:55.484Z,151832.06
2023-05-18T09:48:24.855Z,151863.78
2023-05-18T09:50:51.209Z,151932.22
2023-05-18T09:53:17.381Z,151982.94
2023-05-18T09:55:47.844Z,151962.63
2023-05-18T09:58:14.483Z,152024.78
2023-05-18T10:00:48.762Z,152113.63
2023-05-18T10:03:20.112Z,152097.13
2023-05-18T10:05:46.056Z,152056.50
2023-05-18T10:08:14.239Z,152032.38
2023-05-18T10:10:45.498Z,152142.75
2023-05-18T10:13:19.591Z,152239.19
2023-05-18T10:15:55.650Z,152272.19
2023-05-18T10:18:24.420Z,152357.19
2023-05-18T10:20:51.749Z,152340.69
2023-05-18T10:23:19.692Z,152341.97
2023-05-18T10:25:48.781Z,152371.16
2023-05-18T10:28:26.801Z,152329.31
2023-05-18T10:30:55.191Z,152380.06
2023-05-18T10:33:29.530Z,152410.56
2023-05-18T10:35:57.175Z,152477.84
2023-05-18T10:38:27.591Z,152494.38
2023-05-18T10:41:02.230Z,152542.63
2023-05-18T10:43:28.441Z,152618.81
2023-05-18T10:46:00.272Z,152576.88
2023-05-18T10:48:28.596Z,152599.78
2023-05-18T10:50:56.241Z,152540.06
2023-05-18T10:53:25.184Z,152537.53
2023-05-18T10:55:51.192Z,152510.88
2023-05-18T10:58:19.489Z,152562.94
2023-05-18T11:01:08.633Z,152590.88
2023-05-18T11:03:35.077Z,152724.31
2023-05-18T11:06:12.267Z,152597.25
2023-05-18T11:08:50.735Z,152656.94
2023-05-18T11:11:18.906Z,152759.91
2023-05-18T11:13:48.910Z,152884.41
2023-05-18T11:16:16.600Z,152930.19
2023-05-18T11:18:48.580Z,152972.16
2023-05-18T11:21:24.530Z,152984.91
2023-05-18T11:24:13.049Z,152976.03
2023-05-18T11:26:44.004Z,153072.63
2023-05-18T11:29:29.930Z,153011.63
2023-05-18T11:31:56.137Z,153057.38
2023-05-18T11:34:45.784Z,152996.34
2023-05-18T11:37:14.060Z,152968.38
2023-05-18T11:39:51.626Z,152987.44
2023-05-18T11:42:32.548Z,153096.78
2023-05-18T11:45:05.937Z,153142.59
2023-05-18T11:47:32.620Z,153215.09
2023-05-18T11:50:00.044Z,153136.19
2023-05-18T11:52:26.327Z,153201.09
2023-05-18T11:54:53.494Z,153234.22
2023-05-18T11:57:38.701Z,153215.09
2023-05-18T12:00:07.307Z,153131.13
2023-05-18T12:02:34.406Z,153253.31
2023-05-18T12:05:02.270Z,153193.47
2023-05-18T12:07:30.040Z,153264.78
2023-05-18T12:10:01.111Z,153226.56
2023-05-18T12:12:27.629Z,153344.94
2023-05-18T12:15:01.277Z,153229.16
2023-05-18T12:17:40.096Z,153243.13
2023-05-18T12:20:08.596Z,153170.56
2023-05-18T12:22:34.904Z,153244.38
2023-05-18T12:25:01.021Z,153346.19
2023-05-18T12:27:26.949Z,153411.13
2023-05-18T12:29:53.553Z,153292.75
2023-05-18T12:32:19.703Z,153220.22
2023-05-18T12:34:45.586Z,153342.38
2023-05-18T12:37:14.154Z,153437.84
2023-05-18T12:39:40.421Z,153488.81
2023-05-18T12:42:17.256Z,153547.38
2023-05-18T12:44:44.475Z,153422.53
2023-05-18T12:47:14.183Z,153281.28
2023-05-18T12:49:42.346Z,153398.38
2023-05-18T12:52:10.800Z,153576.66
2023-05-18T12:54:38.438Z,153747.38
2023-05-18T12:57:09.313Z,153744.81
2023-05-18T12:59:35.223Z,153665.81
2023-05-18T13:02:01.207Z,153673.44
2023-05-18T13:04:36.659Z,153635.25
2023-05-18T13:07:02.685Z,153537.22
2023-05-18T13:09:28.683Z,153471.00
2023-05-18T13:12:07.360Z,153352.53
2023-05-18T13:14:37.716Z,153306.75
2023-05-18T13:17:03.813Z,153134.94
2023-05-18T13:19:30.893Z,153390.72
2023-05-18T13:21:57.315Z,153533.34
2023-05-18T13:24:23.206Z,153538.47
2023-05-18T13:26:49.060Z,153561.38
2023-05-18T13:29:14.999Z,153648.00
2023-05-18T13:31:40.922Z,153539.75
2023-05-18T13:34:06.896Z,153314.38
2023-05-18T13:36:35.335Z,153273.66
2023-05-18T13:39:04.762Z,153432.75
2023-05-18T13:41:30.660Z,153482.47
2023-05-18T13:43:56.538Z,153608.47
2023-05-18T13:46:22.696Z,153569.00
2023-05-18T13:48:48.585Z,153497.69
2023-05-18T13:51:14.760Z,153268.59
2023-05-18T13:53:40.956Z,153201.09
2023-05-18T13:56:07.097Z,153309.28
2023-05-18T13:58:33.018Z,153496.44
2023-05-18T14:00:59.906Z,153613.59
2023-05-18T14:03:26.129Z,153577.94
2023-05-18T14:05:52.202Z,153556.31
2023-05-18T14:08:18.117Z,153576.66
2023-05-18T14:10:44.042Z,153670.91
2023-05-18T14:13:10.102Z,153751.19
2023-05-18T14:15:36.069Z,153830.19
2023-05-18T14:18:02.126Z,153727.00
2023-05-18T14:20:29.274Z,153735.94
2023-05-18T14:22:55.701Z,153828.94
2023-05-18T14:25:21.646Z,153748.63
2023-05-18T14:27:47.632Z,153772.88
2023-05-18T14:30:13.727Z,153765.19
2023-05-18T14:32:39.815Z,153753.75
2023-05-18T14:35:06.058Z,153817.44
2023-05-18T14:37:32.244Z,153588.09
2023-05-18T14:39:58.170Z,153619.94
2023-05-18T14:42:24.089Z,153660.69
2023-05-18T14:44:50.053Z,153628.88
2023-05-18T14:47:17.162Z,153619.94
2023-05-18T14:49:43.084Z,153481.13
2023-05-18T14:52:08.946Z,153607.19
2023-05-18T14:54:35.898Z,153506.63
2023-05-18T14:57:01.719Z,153464.63
2023-05-18T14:59:27.683Z,153579.22
2023-05-18T15:01:53.637Z,153497.69
2023-05-18T15:04:21.100Z,153563.91
2023-05-18T15:06:48.345Z,153515.53
2023-05-18T15:09:14.388Z,153575.41
2023-05-18T15:11:40.328Z,153611.06
2023-05-18T15:14:06.253Z,153570.28
2023-05-18T15:16:32.321Z,153555.03
2023-05-18T15:18:58.453Z,153458.25
2023-05-18T15:21:24.440Z,153477.34
2023-05-18T15:23:50.506Z,153463.31
2023-05-18T15:26:16.535Z,153501.56
2023-05-18T15:28:44.231Z,153533.34
2023-05-18T15:31:10.132Z,153446.78
2023-05-18T15:33:41.179Z,153439.09
2023-05-18T15:36:07.750Z,153274.94
2023-05-18T15:38:33.654Z,153392.03
2023-05-18T15:40:59.589Z,153388.19
2023-05-18T15:43:25.695Z,153337.31
2023-05-18T15:45:51.732Z,153341.13
2023-05-18T15:48:17.675Z,153408.53
2023-05-18T15:50:43.615Z,153393.31
2023-05-18T15:53:09.646Z,153367.81
2023-05-18T15:55:35.503Z,153367.81
2023-05-18T15:58:02.509Z,153431.47
2023-05-18T16:00:29.113Z,153493.88
2023-05-18T16:02:55.279Z,153479.88
2023-05-18T16:05:21.274Z,153442.91
2023-05-18T16:07:47.212Z,153374.22
2023-05-18T16:10:13.597Z,153301.69
2023-05-18T16:12:39.487Z,153295.28
2023-05-18T16:15:05.929Z,153383.09
2023-05-18T16:17:31.802Z,153406.00
2023-05-18T16:19:57.725Z,153471.00
2023-05-18T16:22:23.666Z,153325.84
2023-05-18T16:24:49.623Z,153299.09
2023-05-18T16:27:15.517Z,153369.09
2023-05-18T16:29:41.783Z,153294.03
2023-05-18T16:32:07.756Z,153204.91
2023-05-18T16:34:33.738Z,153202.38
2023-05-18T16:36:59.900Z,153241.84
2023-05-18T16:39:27.227Z,153274.94
2023-05-18T16:41:53.361Z,153292.75
2023-05-18T16:44:19.246Z,153262.19
2023-05-18T16:46:45.301Z,153268.59
2023-05-18T16:49:11.240Z,153176.94
2023-05-18T16:51:37.180Z,153182.03
2023-05-18T16:54:03.294Z,153212.56
2023-05-18T16:56:29.213Z,153192.22
2023-05-18T16:58:55.075Z,153067.56
2023-05-18T17:01:28.117Z,153123.53
2023-05-18T17:03:54.563Z,153119.66
2023-05-18T17:06:20.656Z,153035.75
2023-05-18T17:08:47.348Z,153094.25
2023-05-18T17:11:13.663Z,153104.44
2023-05-18T17:13:39.815Z,153071.38
2023-05-18T17:16:06.050Z,153024.31
2023-05-18T17:18:32.070Z,153006.50
2023-05-18T17:20:57.989Z,153000.16
2023-05-18T17:23:23.988Z,153038.31
2023-05-18T17:25:50.521Z,152949.25
2023-05-18T17:28:18.638Z,152946.72
2023-05-18T17:30:44.585Z,152953.06
2023-05-18T17:33:10.620Z,152921.31
2023-05-18T17:35:36.511Z,152936.53
2023-05-18T17:38:02.435Z,152859.00
2023-05-18T17:40:28.294Z,152908.59
2023-05-18T17:42:54.262Z,152897.13
2023-05-18T17:45:20.475Z,152894.59
2023-05-18T17:47:46.489Z,152796.75
2023-05-18T17:50:15.222Z,152733.19
2023-05-18T17:52:41.237Z,152704.00
2023-05-18T17:55:14.344Z,152645.47
2023-05-18T17:57:44.386Z,152696.34
2023-05-18T18:00:12.547Z,152714.13
2023-05-18T18:02:39.270Z,152739.53
2023-05-18T18:05:05.756Z,152706.53
2023-05-18T18:07:31.702Z,152603.59
2023-05-18T18:09:57.821Z,152599.78
2023-05-18T18:12:23.795Z,152622.63
2023-05-18T18:14:49.756Z,152651.88
2023-05-18T18:17:15.869Z,152575.63
2023-05-18T18:19:42.002Z,152554.03
2023-05-18T18:22:07.964Z,152570.56
2023-05-18T18:24:33.929Z,152521.00
2023-05-18T18:27:00.541Z,152470.25
2023-05-18T18:29:29.091Z,152448.63
2023-05-18T18:31:55.413Z,152419.47
2023-05-18T18:34:21.432Z,152405.44
2023-05-18T18:36:47.452Z,152321.66
2023-05-18T18:39:13.936Z,152293.75
2023-05-18T18:41:41.790Z,152317.84
2023-05-18T18:44:08.270Z,152321.66
2023-05-18T18:46:34.354Z,152289.97
2023-05-18T18:49:00.439Z,152287.38
2023-05-18T18:51:26.408Z,152229.03
2023-05-18T18:53:52.680Z,152221.44
2023-05-18T18:56:18.613Z,152215.06
2023-05-18T18:58:44.970Z,152236.66
2023-05-18T19:01:11.009Z,152198.63
2023-05-18T19:03:37.029Z,152202.41
2023-05-18T19:06:03.505Z,152221.44
2023-05-18T19:08:31.126Z,152203.69
2023-05-18T19:10:57.408Z,152178.28
2023-05-18T19:13:23.386Z,152175.75
2023-05-18T19:15:50.607Z,152160.50
2023-05-18T19:18:16.973Z,152175.75
2023-05-18T19:20:43.220Z,152122.47
2023-05-18T19:23:09.357Z,152118.66
2023-05-18T19:25:35.393Z,152100.91
2023-05-18T19:28:01.703Z,152062.81
2023-05-18T19:30:27.690Z,152078.03
2023-05-18T19:32:53.998Z,152072.97
2023-05-18T19:35:21.279Z,152067.88
2023-05-18T19:37:47.517Z,152084.38
2023-05-18T19:40:13.490Z,152066.63
2023-05-18T19:42:39.704Z,152046.31
2023-05-18T19:45:06.076Z,152037.47
2023-05-18T19:47:32.345Z,151995.59
2023-05-18T19:49:59.053Z,151990.53
2023-05-18T19:52:25.623Z,151967.72
2023-05-18T19:54:51.851Z,151972.78
2023-05-18T19:57:19.032Z,151920.81
2023-05-18T19:59:45.063Z,151886.56
2023-05-18T20:02:11.004Z,151909.38
2023-05-18T20:04:36.911Z,151922.06
2023-05-18T20:07:03.045Z,151913.22
2023-05-18T20:09:29.036Z,151932.22
2023-05-18T20:11:57.728Z,151906.84
2023-05-18T20:14:24.206Z,151887.84
2023-05-18T20:16:55.401Z,151842.22
2023-05-18T20:19:22.677Z,151847.28
2023-05-18T20:21:49.351Z,151821.97
2023-05-18T20:24:15.528Z,151819.38
2023-05-18T20:26:41.759Z,151823.22
2023-05-18T20:29:07.775Z,151815.59
2023-05-18T20:31:33.972Z,151815.59
2023-05-18T20:34:00.270Z,151813.06
2023-05-18T20:36:26.329Z,151770.00
2023-05-18T20:38:53.606Z,151756.03
2023-05-18T20:41:22.132Z,151763.63
2023-05-18T20:43:50.434Z,151752.25
2023-05-18T20:46:16.955Z,151728.09
2023-05-18T20:48:44.138Z,151723.06
2023-05-18T20:51:14.906Z,151695.19
2023-05-18T20:53:44.320Z,151692.63
2023-05-18T20:56:11.712Z,151682.53
2023-05-18T20:58:43.614Z,151638.16
2023-05-18T21:01:10.108Z,151619.16
2023-05-18T21:03:37.733Z,151633.09
2023-05-18T21:06:04.309Z,151629.31
2023-05-18T21:08:30.150Z,151604.00
2023-05-18T21:10:56.084Z,151576.13
2023-05-18T21:13:22.071Z,151573.59
2023-05-18T21:15:48.139Z,151610.31
2023-05-18T21:18:14.056Z,151597.63
2023-05-18T21:20:40.095Z,151597.63
2023-05-18T21:23:06.047Z,151621.75
2023-05-18T21:25:32.034Z,151592.59
2023-05-18T21:27:58.055Z,151591.31
2023-05-18T21:30:24.583Z,151610.31
2023-05-18T21:32:52.033Z,151617.91
2023-05-18T21:35:18.211Z,151565.97
2023-05-18T21:37:44.180Z,151592.59
2023-05-18T21:40:10.165Z,151538.13
2023-05-18T21:42:40.542Z,151555.84
2023-05-18T21:45:07.153Z,151530.50
2023-05-18T21:47:33.034Z,151493.78
2023-05-18T21:49:58.908Z,151507.72
2023-05-18T21:52:24.787Z,151516.63
2023-05-18T21:54:50.666Z,151479.91
2023-05-18T21:57:16.480Z,151519.13
2023-05-18T21:59:42.395Z,151495.06
2023-05-18T22:02:08.234Z,151506.47
2023-05-18T22:04:37.139Z,151500.16
2023-05-18T22:07:03.183Z,151463.44
2023-05-18T22:09:31.780Z,151420.38
2023-05-18T22:11:58.162Z,151400.13
2023-05-18T22:14:24.095Z,151398.84
2023-05-18T22:16:50.290Z,151398.84
2023-05-18T22:19:16.334Z,151359.63
2023-05-18T22:21:42.264Z,151334.28
2023-05-18T22:24:08.181Z,151338.06
2023-05-18T22:26:37.019Z,151349.44
2023-05-18T22:29:02.958Z,151345.66
2023-05-18T22:31:28.988Z,151350.69
2023-05-18T22:33:55.115Z,151335.53
2023-05-18T22:36:21.137Z,151315.31
2023-05-18T22:38:48.512Z,151303.91
2023-05-18T22:41:15.796Z,151297.59
2023-05-18T22:43:41.681Z,151259.59
2023-05-18T22:46:07.941Z,151283.66
2023-05-18T22:48:34.174Z,151272.25
2023-05-18T22:51:00.354Z,151310.22
2023-05-18T22:53:26.756Z,151308.94
2023-05-18T22:55:52.672Z,151292.50
2023-05-18T22:58:18.622Z,151269.72
2023-05-18T23:00:44.639Z,151282.41
2023-05-18T23:03:10.528Z,151271.00
2023-05-18T23:05:40.324Z,151281.13
2023-05-18T23:08:06.534Z,151265.94
2023-05-18T23:10:32.744Z,151249.50
2023-05-18T23:12:59.157Z,151192.56
2023-05-18T23:15:25.232Z,151182.44
2023-05-18T23:17:53.863Z,151172.34
2023-05-18T23:20:21.992Z,151178.63
2023-05-18T23:22:48.553Z,151186.22
2023-05-18T23:25:14.759Z,151184.94
2023-05-18T23:27:40.875Z,151177.38
2023-05-18T23:30:07.244Z,151182.44
2023-05-18T23:32:34.604Z,151181.16
2023-05-18T23:35:00.842Z,151110.34
2023-05-18T23:37:29.838Z,151136.91
2023-05-18T23:39:56.191Z,151114.13
2023-05-18T23:42:24.047Z,151079.97
2023-05-18T23:44:50.211Z,151117.94
2023-05-18T23:47:16.425Z,151085.06
2023-05-18T23:49:43.564Z,151095.16
2023-05-18T23:52:09.968Z,151057.22
2023-05-18T23:54:37.048Z,151090.09
2023-05-18T23:57:03.931Z,151072.41
2023-05-18T23:59:30.445Z,151067.34
